Time;durP1;ratioP1;P1;durP2;ratioP2;P2;SDS_P1;SDS_P2;PMS_P1;PMS_P2;Temp;Humidity;BMP_temperature;BMP_pressure;BME280_temperature;BME280_humidity;BME280_pressure;Samples;Min_cycle;Max_cycle;Signal;HPM_P1;HPM_P2
2023/11/05 00:00:30;;;;;;;0.50;0.45;;;11.50;99.90;;;;;;4985873;28;20546;-79
2023/11/05 00:02:57;;;;;;;0.88;0.50;;;11.50;99.90;;;;;;4980263;28;20050;-79
2023/11/05 00:05:24;;;;;;;1.42;0.40;;;11.50;99.90;;;;;;4981904;28;20494;-79
2023/11/05 00:07:50;;;;;;;0.95;0.52;;;11.50;99.90;;;;;;4983397;28;20518;-79
2023/11/05 00:10:17;;;;;;;1.15;0.60;;;11.50;99.90;;;;;;4984293;28;20054;-78
2023/11/05 00:12:44;;;;;;;0.90;0.40;;;11.60;99.90;;;;;;4987647;28;20121;-79
2023/11/05 00:15:11;;;;;;;1.02;0.35;;;11.60;99.90;;;;;;4984800;28;20051;-79
2023/11/05 00:17:37;;;;;;;2.53;0.50;;;11.60;99.90;;;;;;4979550;28;20054;-79
2023/11/05 00:20:07;;;;;;;2.97;0.80;;;11.70;99.90;;;;;;4977658;28;20049;-80
2023/11/05 00:22:34;;;;;;;2.70;0.60;;;11.70;99.90;;;;;;4984564;28;20042;-79
2023/11/05 00:25:01;;;;;;;1.60;0.50;;;11.70;99.90;;;;;;4981711;28;20051;-79
2023/11/05 00:27:28;;;;;;;2.38;0.55;;;11.70;99.90;;;;;;4985065;28;20054;-79
2023/11/05 00:29:57;;;;;;;1.25;0.40;;;11.80;99.90;;;;;;4978668;28;20070;-78
2023/11/05 00:32:23;;;;;;;3.22;0.50;;;11.80;99.90;;;;;;4968321;28;20430;-79
2023/11/05 00:34:50;;;;;;;3.75;0.55;;;11.90;99.90;;;;;;4979937;28;20054;-79
2023/11/05 00:37:17;;;;;;;2.33;0.40;;;11.90;99.90;;;;;;4988703;28;20089;-80
2023/11/05 00:39:44;;;;;;;6.90;0.55;;;11.90;99.90;;;;;;4985295;28;20054;-80
2023/11/05 00:42:11;;;;;;;1.95;0.40;;;11.90;99.90;;;;;;4981863;28;20491;-80
2023/11/05 00:44:38;;;;;;;2.10;0.82;;;11.90;99.90;;;;;;4974169;28;20043;-79
2023/11/05 00:47:04;;;;;;;2.78;0.88;;;12.00;99.90;;;;;;4977767;28;20156;-78
2023/11/05 00:49:31;;;;;;;3.10;0.73;;;12.00;99.90;;;;;;4985582;28;20100;-80
2023/11/05 00:51:58;;;;;;;1.67;0.52;;;12.00;99.90;;;;;;4984714;28;20042;-79
2023/11/05 00:54:28;;;;;;;2.72;0.55;;;12.10;99.90;;;;;;4981876;28;20089;-79
2023/11/05 00:56:55;;;;;;;1.98;0.85;;;12.00;99.90;;;;;;4985000;28;20051;-79
2023/11/05 00:59:22;;;;;;;2.60;0.93;;;12.10;99.90;;;;;;4981180;28;20458;-80
2023/11/05 01:01:49;;;;;;;2.92;0.85;;;12.10;99.90;;;;;;4977327;28;20113;-79
2023/11/05 01:04:16;;;;;;;3.42;0.40;;;12.20;99.90;;;;;;4977003;28;20491;-79
2023/11/05 01:06:43;;;;;;;2.95;0.70;;;12.20;99.90;;;;;;4986888;28;20430;-79
2023/11/05 01:09:10;;;;;;;3.30;0.60;;;12.20;99.90;;;;;;4979439;28;20282;-80
2023/11/05 01:11:40;;;;;;;3.17;0.70;;;12.30;99.90;;;;;;4982260;28;20050;-80
2023/11/05 01:14:06;;;;;;;2.97;0.60;;;12.30;99.90;;;;;;4978115;28;20050;-80
2023/11/05 01:16:33;;;;;;;5.57;0.98;;;12.30;99.90;;;;;;4979540;28;20054;-79
2023/11/05 01:19:00;;;;;;;4.57;0.73;;;12.30;99.90;;;;;;4982946;28;20450;-79
2023/11/05 01:21:27;;;;;;;3.75;0.75;;;12.30;99.90;;;;;;4984259;28;20046;-80
2023/11/05 01:23:54;;;;;;;3.53;0.60;;;12.30;99.90;;;;;;4980277;28;20093;-79
2023/11/05 01:26:20;;;;;;;2.55;0.57;;;12.40;99.90;;;;;;4979941;28;20054;-79
2023/11/05 01:28:47;;;;;;;2.72;0.60;;;12.40;99.90;;;;;;4982367;28;20050;-80
2023/11/05 01:31:15;;;;;;;4.20;0.63;;;12.40;99.90;;;;;;4977952;28;20060;-79
2023/11/05 01:33:43;;;;;;;1.75;0.73;;;12.40;99.90;;;;;;4987963;28;20220;-79
2023/11/05 01:36:10;;;;;;;2.95;0.90;;;12.50;99.90;;;;;;4984767;28;20481;-80
2023/11/05 01:38:36;;;;;;;5.00;1.20;;;12.50;99.90;;;;;;4994517;28;20054;-79
2023/11/05 01:41:03;;;;;;;2.00;0.68;;;12.50;99.90;;;;;;4980880;28;20093;-80
2023/11/05 01:43:30;;;;;;;2.42;0.70;;;12.50;99.90;;;;;;4994939;28;20046;-80
2023/11/05 01:45:57;;;;;;;4.25;1.00;;;12.50;99.90;;;;;;4976621;28;20051;-79
2023/11/05 01:48:26;;;;;;;3.05;0.70;;;12.50;99.90;;;;;;4980974;28;20051;-80
2023/11/05 01:50:53;;;;;;;5.15;1.80;;;12.50;99.90;;;;;;4988006;28;20054;-80
2023/11/05 01:53:20;;;;;;;1.90;0.70;;;12.50;99.90;;;;;;4990046;28;20055;-80
2023/11/05 01:55:47;;;;;;;3.13;0.75;;;12.60;99.90;;;;;;4987773;28;20522;-80
2023/11/05 01:58:14;;;;;;;2.53;0.88;;;12.60;99.90;;;;;;4990423;28;20507;-81
2023/11/05 02:00:41;;;;;;;5.38;0.73;;;12.60;99.90;;;;;;4978325;28;20086;-80
2023/11/05 02:03:08;;;;;;;1.50;0.45;;;12.60;99.90;;;;;;4982247;28;20054;-81
2023/11/05 02:05:34;;;;;;;7.18;0.88;;;12.60;99.90;;;;;;4982413;28;20403;-80
2023/11/05 02:08:01;;;;;;;3.40;0.90;;;12.60;99.90;;;;;;4977647;28;20055;-80
2023/11/05 02:10:28;;;;;;;3.25;0.88;;;12.50;99.90;;;;;;4982756;28;20073;-80
2023/11/05 02:12:59;;;;;;;1.60;0.50;;;12.50;99.90;;;;;;4980930;28;20469;-79
2023/11/05 02:15:28;;;;;;;3.45;0.98;;;12.50;99.90;;;;;;4978914;28;20047;-81
2023/11/05 02:17:55;;;;;;;5.25;0.70;;;12.50;99.90;;;;;;4996900;28;20050;-80
2023/11/05 02:20:22;;;;;;;3.50;0.70;;;12.50;99.90;;;;;;4983530;28;20058;-80
2023/11/05 02:22:52;;;;;;;3.63;0.93;;;12.50;99.90;;;;;;4985316;28;20481;-80
2023/11/05 02:25:19;;;;;;;;;;;12.50;99.90;;;;;;4977536;28;20047;-80
2023/11/05 02:27:48;;;;;;;1.80;0.80;;;12.50;99.90;;;;;;4977007;28;19928;-80
2023/11/05 02:30:18;;;;;;;4.07;0.82;;;12.50;99.90;;;;;;4981117;28;20046;-79
2023/11/05 02:32:46;;;;;;;2.95;0.80;;;12.50;99.90;;;;;;4997621;28;20047;-80
2023/11/05 02:35:13;;;;;;;5.25;0.82;;;12.50;99.90;;;;;;4984934;28;20490;-80
2023/11/05 02:37:40;;;;;;;9.68;1.15;;;12.50;99.90;;;;;;4979632;28;20130;-80
2023/11/05 02:40:08;;;;;;;3.60;0.73;;;12.50;99.90;;;;;;4978949;28;20050;-80
2023/11/05 02:42:35;;;;;;;2.78;0.80;;;12.50;99.90;;;;;;4978111;28;20458;-79
2023/11/05 02:45:04;;;;;;;4.05;0.70;;;12.50;99.90;;;;;;4980213;28;20055;-80
2023/11/05 02:47:31;;;;;;;3.92;0.80;;;12.50;99.90;;;;;;4998550;28;20046;-81
2023/11/05 02:49:58;;;;;;;1.65;0.50;;;12.60;99.90;;;;;;4982323;28;20051;-80
2023/11/05 02:52:24;;;;;;;2.22;0.70;;;12.50;99.90;;;;;;4990996;28;20478;-79
2023/11/05 02:54:51;;;;;;;3.65;0.60;;;12.60;99.90;;;;;;5004407;28;20050;-81
2023/11/05 02:57:20;;;;;;;2.25;0.70;;;12.60;99.90;;;;;;4985085;28;20474;-80
2023/11/05 02:59:49;;;;;;;1.10;0.60;;;12.60;99.90;;;;;;4983232;28;20086;-80
2023/11/05 03:02:16;;;;;;;3.05;0.80;;;12.60;99.90;;;;;;4987617;28;20138;-79
2023/11/05 03:04:43;;;;;;;4.50;1.00;;;12.60;99.90;;;;;;4990136;28;20423;-80
2023/11/05 03:07:13;;;;;;;2.85;0.70;;;12.60;99.90;;;;;;4988539;28;20047;-80
2023/11/05 03:09:42;;;;;;;7.53;0.90;;;12.60;99.90;;;;;;4986835;28;20492;-80
2023/11/05 03:12:09;;;;;;;5.88;1.10;;;12.60;99.90;;;;;;4979229;28;20050;-81
2023/11/05 03:14:36;;;;;;;6.10;0.75;;;12.60;99.90;;;;;;4987276;28;20116;-80
2023/11/05 03:17:03;;;;;;;3.15;0.82;;;12.60;99.90;;;;;;4989878;28;20081;-80
2023/11/05 03:19:30;;;;;;;3.28;0.75;;;12.60;99.90;;;;;;4992861;28;20050;-80
2023/11/05 03:21:56;;;;;;;3.78;0.70;;;12.60;99.90;;;;;;4980591;28;20057;-79
2023/11/05 03:24:23;;;;;;;3.63;0.80;;;12.50;99.90;;;;;;4975817;28;20110;-79
2023/11/05 03:26:50;;;;;;;3.70;1.13;;;12.50;99.90;;;;;;4985161;28;20060;-79
2023/11/05 03:29:18;;;;;;;2.35;0.50;;;12.50;99.90;;;;;;4983071;28;20047;-80
2023/11/05 03:31:51;;;;;;;5.68;0.90;;;12.50;99.90;;;;;;4987213;28;20046;-80
2023/11/05 03:34:18;;;;;;;1.50;0.60;;;12.50;99.90;;;;;;4989941;28;20054;-80
2023/11/05 03:36:45;;;;;;;0.93;0.40;;;12.50;99.90;;;;;;5001330;28;20446;-79
2023/11/05 03:39:12;;;;;;;1.95;0.45;;;12.50;99.90;;;;;;4986007;28;20106;-79
2023/11/05 03:41:39;;;;;;;3.60;0.90;;;12.50;99.90;;;;;;4994357;28;20054;-80
2023/11/05 03:44:06;;;;;;;0.70;0.40;;;12.50;99.90;;;;;;4982743;28;20058;-80
2023/11/05 03:46:33;;;;;;;2.80;0.60;;;12.50;99.90;;;;;;4988541;28;20557;-80
2023/11/05 03:49:00;;;;;;;1.08;0.40;;;12.50;99.90;;;;;;4982286;28;20047;-80
2023/11/05 03:51:26;;;;;;;4.63;0.60;;;12.50;99.90;;;;;;4983951;28;20054;-81
2023/11/05 03:53:53;;;;;;;2.55;0.68;;;12.60;99.90;;;;;;4980433;28;20061;-79
2023/11/05 03:56:20;;;;;;;2.67;0.65;;;12.50;99.90;;;;;;4983747;28;20051;-80
2023/11/05 03:58:47;;;;;;;1.38;0.30;;;12.50;99.90;;;;;;4985648;28;20187;-80
2023/11/05 04:01:19;;;;;;;0.93;0.30;;;12.50;99.90;;;;;;4984951;28;20055;-79
2023/11/05 04:03:46;;;;;;;1.48;0.45;;;12.50;99.90;;;;;;4987603;28;20059;-80
2023/11/05 04:06:16;;;;;;;1.83;0.40;;;12.50;99.90;;;;;;4982370;28;20491;-80
2023/11/05 04:08:46;;;;;;;1.10;0.40;;;12.50;99.90;;;;;;4984132;28;20050;-79
2023/11/05 04:11:14;;;;;;;;;;;12.50;99.90;;;;;;4979447;28;20074;-80
2023/11/05 04:13:43;;;;;;;0.95;0.20;;;12.50;99.90;;;;;;4985213;28;20385;-79
2023/11/05 04:16:10;;;;;;;3.75;0.60;;;12.50;99.90;;;;;;4982891;28;20113;-80
2023/11/05 04:18:38;;;;;;;0.95;0.28;;;12.50;99.90;;;;;;4999355;28;20042;-79
2023/11/05 04:21:05;;;;;;;2.40;0.40;;;12.50;99.90;;;;;;4981095;28;20475;-80
2023/11/05 04:23:32;;;;;;;0.90;0.28;;;12.50;99.90;;;;;;4979912;28;20101;-81
2023/11/05 04:25:59;;;;;;;0.75;0.57;;;12.50;99.90;;;;;;4978420;28;20515;-81
2023/11/05 04:28:26;;;;;;;2.75;0.47;;;12.50;99.90;;;;;;4987451;28;20058;-80
2023/11/05 04:30:53;;;;;;;1.02;0.25;;;12.40;99.90;;;;;;4998970;28;20050;-79
2023/11/05 04:33:19;;;;;;;0.75;0.20;;;12.40;99.90;;;;;;4986019;28;20046;-81
2023/11/05 04:35:46;;;;;;;0.73;0.30;;;12.40;99.90;;;;;;4991210;28;20046;-79
2023/11/05 04:38:13;;;;;;;0.40;0.20;;;12.40;99.90;;;;;;4982954;28;20129;-79
2023/11/05 04:40:40;;;;;;;0.93;0.30;;;12.30;99.90;;;;;;4993421;28;20100;-79
2023/11/05 04:43:07;;;;;;;0.68;0.20;;;12.30;99.90;;;;;;4985061;28;20051;-79
2023/11/05 04:45:34;;;;;;;1.58;0.32;;;12.30;99.90;;;;;;4993963;28;20039;-79
2023/11/05 04:48:01;;;;;;;0.57;0.30;;;12.30;99.90;;;;;;4986817;28;20047;-79
2023/11/05 04:50:28;;;;;;;4.78;0.30;;;12.20;99.90;;;;;;4979842;28;20143;-79
2023/11/05 04:52:55;;;;;;;1.13;0.30;;;12.20;99.90;;;;;;4979331;28;20109;-79
2023/11/05 04:55:21;;;;;;;0.47;0.30;;;12.20;99.90;;;;;;4979773;28;20050;-79
2023/11/05 04:57:48;;;;;;;2.63;0.30;;;12.20;99.90;;;;;;4991995;28;20057;-80
2023/11/05 05:00:15;;;;;;;2.05;0.35;;;12.20;99.90;;;;;;4986858;28;20051;-79
2023/11/05 05:02:42;;;;;;;1.95;0.20;;;12.10;99.90;;;;;;4987061;28;20200;-79
2023/11/05 05:05:09;;;;;;;2.30;0.57;;;12.10;99.90;;;;;;4984941;28;20133;-80
2023/11/05 05:07:37;;;;;;;0.47;0.30;;;12.10;99.90;;;;;;4974199;28;20077;-79
2023/11/05 05:10:05;;;;;;;0.55;0.30;;;12.10;99.90;;;;;;4981841;28;20051;-80
2023/11/05 05:12:33;;;;;;;0.20;0.20;;;12.10;99.90;;;;;;4990524;28;20057;-78
2023/11/05 05:15:05;;;;;;;2.13;0.40;;;12.00;99.90;;;;;;4989642;28;20278;-79
2023/11/05 05:17:32;;;;;;;0.88;0.30;;;12.00;99.90;;;;;;4985017;28;20050;-79
2023/11/05 05:19:59;;;;;;;1.33;0.40;;;12.00;99.90;;;;;;4986073;28;20051;-80
2023/11/05 05:22:26;;;;;;;1.70;0.40;;;12.00;99.90;;;;;;4979135;28;20046;-79
2023/11/05 05:24:53;;;;;;;1.02;0.30;;;12.00;99.90;;;;;;4979953;28;20053;-80
2023/11/05 05:27:20;;;;;;;0.28;0.28;;;12.00;99.90;;;;;;4988720;28;20050;-79
2023/11/05 05:29:47;;;;;;;0.65;0.30;;;12.00;99.90;;;;;;4981306;28;20050;-79
2023/11/05 05:32:13;;;;;;;0.30;0.28;;;12.00;99.90;;;;;;4980111;28;20078;-79
2023/11/05 05:34:40;;;;;;;2.25;0.40;;;12.00;99.90;;;;;;4985462;28;20510;-79
2023/11/05 05:37:07;;;;;;;0.73;0.20;;;12.00;99.90;;;;;;4980767;28;20079;-79
2023/11/05 05:39:35;;;;;;;0.25;0.17;;;12.00;99.90;;;;;;4984735;28;20586;-78
2023/11/05 05:42:03;;;;;;;0.30;0.30;;;12.00;99.90;;;;;;4987108;28;20564;-79
2023/11/05 05:44:30;;;;;;;0.22;0.22;;;12.00;99.90;;;;;;4983388;28;20047;-79
2023/11/05 05:46:57;;;;;;;0.40;0.20;;;12.00;99.90;;;;;;4980460;28;20542;-80
2023/11/05 05:49:24;;;;;;;1.13;0.30;;;12.00;99.90;;;;;;4979497;28;20050;-79
2023/11/05 05:51:51;;;;;;;0.45;0.30;;;12.00;99.90;;;;;;4977018;28;20047;-78
2023/11/05 05:54:18;;;;;;;1.13;0.30;;;12.00;99.90;;;;;;4984817;28;20046;-79
2023/11/05 05:56:45;;;;;;;0.28;0.20;;;12.00;99.90;;;;;;4984514;28;20051;-80
2023/11/05 05:59:12;;;;;;;0.30;0.20;;;12.00;99.90;;;;;;4983267;28;20070;-79
2023/11/05 06:01:38;;;;;;;0.47;0.30;;;12.00;99.90;;;;;;4978987;28;20050;-80
2023/11/05 06:04:07;;;;;;;3.45;0.30;;;12.00;99.90;;;;;;4980837;28;20043;-80
2023/11/05 06:06:34;;;;;;;0.52;0.20;;;12.00;99.90;;;;;;4976890;28;20069;-79
2023/11/05 06:09:01;;;;;;;0.40;0.20;;;12.00;99.90;;;;;;4978914;28;20074;-79
2023/11/05 06:11:28;;;;;;;0.60;0.30;;;12.00;99.90;;;;;;4986061;28;20051;-79
2023/11/05 06:13:55;;;;;;;0.47;0.30;;;11.90;99.90;;;;;;4985452;28;20047;-80
2023/11/05 06:16:21;;;;;;;0.68;0.30;;;11.90;99.90;;;;;;4981792;28;20054;-79
2023/11/05 06:18:48;;;;;;;0.30;0.30;;;11.90;99.90;;;;;;4991867;28;20423;-80
2023/11/05 06:21:15;;;;;;;1.65;0.30;;;11.80;99.90;;;;;;4968594;28;20058;-79
2023/11/05 06:23:42;;;;;;;0.20;0.20;;;11.80;99.90;;;;;;4977998;28;20133;-79
2023/11/05 06:26:09;;;;;;;0.35;0.30;;;11.70;99.90;;;;;;4986850;28;20073;-81
2023/11/05 06:28:36;;;;;;;0.45;0.40;;;11.70;99.90;;;;;;4982966;28;20078;-81
2023/11/05 06:31:03;;;;;;;0.60;0.38;;;11.60;99.90;;;;;;4982489;28;20097;-80
2023/11/05 06:33:33;;;;;;;0.60;0.60;;;11.60;99.90;;;;;;4991583;28;20058;-80
2023/11/05 06:36:04;;;;;;;0.85;0.38;;;11.60;99.90;;;;;;4982745;28;20407;-80
2023/11/05 06:38:31;;;;;;;4.03;0.30;;;11.50;99.90;;;;;;4994608;28;20097;-80
2023/11/05 06:40:58;;;;;;;0.20;0.20;;;11.40;99.90;;;;;;4985457;28;20121;-79
2023/11/05 06:43:25;;;;;;;1.15;0.65;;;11.40;99.90;;;;;;4982327;28;20074;-80
2023/11/05 06:45:52;;;;;;;0.85;0.30;;;11.40;99.90;;;;;;4986129;28;20078;-79
2023/11/05 06:48:19;;;;;;;0.40;0.30;;;11.30;99.90;;;;;;4977808;28;20102;-79
2023/11/05 06:50:46;;;;;;;0.25;0.20;;;11.20;99.90;;;;;;4975524;28;20047;-81
2023/11/05 06:53:13;;;;;;;0.80;0.30;;;11.20;99.90;;;;;;4986040;28;20415;-79
2023/11/05 06:55:40;;;;;;;2.60;0.30;;;11.20;99.90;;;;;;4992036;28;20069;-79
2023/11/05 06:58:08;;;;;;;1.80;0.55;;;11.20;99.90;;;;;;4982726;28;20070;-79
2023/11/05 07:00:35;;;;;;;2.30;0.60;;;11.20;99.90;;;;;;4990154;28;20518;-79
2023/11/05 07:03:02;;;;;;;0.93;0.60;;;11.20;99.90;;;;;;4991717;28;20446;-80
2023/11/05 07:05:29;;;;;;;4.30;1.60;;;11.10;99.90;;;;;;4994007;28;20057;-80
2023/11/05 07:07:56;;;;;;;1.20;0.55;;;11.10;99.90;;;;;;5008195;28;20039;-80
2023/11/05 07:10:24;;;;;;;0.52;0.52;;;11.10;99.90;;;;;;5000874;28;20047;-79
2023/11/05 07:12:52;;;;;;;1.02;0.50;;;11.10;99.90;;;;;;4984219;28;20085;-79
2023/11/05 07:15:19;;;;;;;1.65;0.60;;;11.10;99.90;;;;;;4981590;28;20491;-80
2023/11/05 07:17:46;;;;;;;0.63;0.60;;;11.10;99.90;;;;;;4979706;28;20069;-79
2023/11/05 07:20:13;;;;;;;0.20;0.20;;;11.10;99.90;;;;;;4990227;28;20050;-79
2023/11/05 07:22:42;;;;;;;0.30;0.30;;;11.00;99.90;;;;;;5006426;28;20497;-80
2023/11/05 07:25:09;;;;;;;2.78;0.30;;;11.00;99.90;;;;;;4983210;28;20053;-79
2023/11/05 07:27:38;;;;;;;0.30;0.30;;;11.00;99.90;;;;;;4986648;28;20051;-79
2023/11/05 07:30:06;;;;;;;1.05;0.30;;;11.00;99.90;;;;;;4988739;28;20053;-79
2023/11/05 07:32:33;;;;;;;0.20;0.20;;;11.00;99.90;;;;;;4986044;28;20046;-80
2023/11/05 07:34:59;;;;;;;2.20;0.30;;;10.90;99.90;;;;;;4990432;28;20106;-80
2023/11/05 07:37:27;;;;;;;0.38;0.38;;;10.90;99.90;;;;;;4995647;28;20046;-79
2023/11/05 07:39:54;;;;;;;0.20;0.20;;;10.90;99.90;;;;;;5004714;28;20046;-79
2023/11/05 07:42:21;;;;;;;0.20;0.20;;;10.90;99.90;;;;;;4982916;28;20503;-79
2023/11/05 07:44:48;;;;;;;0.73;0.38;;;10.90;99.90;;;;;;4982361;28;20415;-80
2023/11/05 07:47:15;;;;;;;0.52;0.17;;;10.80;99.90;;;;;;4983475;28;20247;-79
2023/11/05 07:49:42;;;;;;;1.10;0.20;;;10.90;99.90;;;;;;4986966;28;20043;-80
2023/11/05 07:52:09;;;;;;;0.30;0.30;;;10.90;99.90;;;;;;4991049;28;20045;-79
2023/11/05 07:54:36;;;;;;;0.93;0.45;;;10.90;99.90;;;;;;4981338;28;20134;-80
2023/11/05 07:57:03;;;;;;;0.60;0.40;;;10.90;99.90;;;;;;4987891;28;20491;-79
2023/11/05 07:59:30;;;;;;;6.05;0.50;;;10.90;99.90;;;;;;4980878;28;20491;-79
2023/11/05 08:02:00;;;;;;;2.53;0.93;;;11.00;99.90;;;;;;4978291;28;20038;-79
2023/11/05 08:04:27;;;;;;;3.00;0.60;;;11.00;99.90;;;;;;4985891;28;20050;-80
2023/11/05 08:06:54;;;;;;;2.08;0.80;;;11.00;99.90;;;;;;4986275;28;20070;-80
2023/11/05 08:09:23;;;;;;;1.30;0.43;;;11.10;99.90;;;;;;4981506;28;20047;-78
2023/11/05 08:11:50;;;;;;;3.22;0.90;;;11.10;99.90;;;;;;4986054;28;20048;-79
2023/11/05 08:14:17;;;;;;;4.63;1.20;;;11.20;99.90;;;;;;4979782;28;20050;-80
2023/11/05 08:16:44;;;;;;;1.73;0.50;;;11.20;99.90;;;;;;4981435;28;20046;-79
2023/11/05 08:19:11;;;;;;;2.67;0.55;;;11.20;99.90;;;;;;4980557;28;20491;-80
2023/11/05 08:21:38;;;;;;;1.40;0.50;;;11.30;99.90;;;;;;4983188;28;20055;-81
2023/11/05 08:24:05;;;;;;;0.65;0.32;;;11.30;99.90;;;;;;4986019;28;20046;-79
2023/11/05 08:26:32;;;;;;;2.70;0.63;;;11.30;99.90;;;;;;4982911;28;20047;-79
2023/11/05 08:29:02;;;;;;;1.33;0.63;;;11.30;99.90;;;;;;4979139;28;20050;-80
2023/11/05 08:31:29;;;;;;;1.93;0.50;;;11.30;99.90;;;;;;4986188;28;20042;-81
2023/11/05 08:33:56;;;;;;;1.17;0.52;;;11.20;99.90;;;;;;4989862;28;20438;-80
2023/11/05 08:36:23;;;;;;;2.88;0.82;;;11.20;99.90;;;;;;4983605;28;20049;-80
2023/11/05 08:38:50;;;;;;;0.70;0.32;;;11.20;99.90;;;;;;4977728;28;20046;-80
2023/11/05 08:41:17;;;;;;;0.68;0.43;;;11.20;99.90;;;;;;4985447;28;20055;-79
2023/11/05 08:43:44;;;;;;;0.95;0.60;;;11.20;99.90;;;;;;4981593;28;20134;-80
2023/11/05 08:46:11;;;;;;;1.73;0.50;;;11.30;99.90;;;;;;5004890;28;20138;-79
2023/11/05 08:48:38;;;;;;;0.30;0.30;;;11.30;99.90;;;;;;4982771;28;20059;-79
2023/11/05 08:51:04;;;;;;;0.60;0.50;;;11.30;99.90;;;;;;5000553;28;20193;-80
2023/11/05 08:53:32;;;;;;;1.27;0.63;;;11.30;99.90;;;;;;4985851;28;20053;-80
2023/11/05 08:55:58;;;;;;;1.92;0.47;;;11.40;99.90;;;;;;4981982;28;20046;-80
2023/11/05 08:58:25;;;;;;;0.30;0.30;;;11.40;99.90;;;;;;4980866;28;20043;-79
2023/11/05 09:00:56;;;;;;;0.52;0.28;;;11.40;99.90;;;;;;4980329;28;20082;-79
2023/11/05 09:03:23;;;;;;;2.53;0.32;;;11.40;99.90;;;;;;4982596;28;20097;-79
2023/11/05 09:05:50;;;;;;;1.33;0.30;;;11.40;99.90;;;;;;4988970;28;20042;-79
2023/11/05 09:08:18;;;;;;;0.98;0.40;;;11.40;99.90;;;;;;4985985;28;20038;-80
2023/11/05 09:10:45;;;;;;;1.58;0.50;;;11.50;99.90;;;;;;4984066;28;20055;-80
2023/11/05 09:13:13;;;;;;;2.65;0.50;;;11.60;99.90;;;;;;4978135;28;20078;-80
2023/11/05 09:15:40;;;;;;;3.42;0.70;;;11.60;99.90;;;;;;4988493;28;20061;-79
2023/11/05 09:18:07;;;;;;;2.40;0.63;;;11.60;99.90;;;;;;4988137;28;20050;-79
2023/11/05 09:20:34;;;;;;;1.80;0.40;;;11.70;99.90;;;;;;4982978;28;20047;-80
2023/11/05 09:23:00;;;;;;;1.55;0.73;;;11.70;99.90;;;;;;4984560;28;20046;-79
2023/11/05 09:25:27;;;;;;;2.88;1.02;;;11.80;99.90;;;;;;4978927;28;20053;-80
2023/11/05 09:27:55;;;;;;;2.08;0.63;;;11.80;99.90;;;;;;4985212;28;20046;-80
2023/11/05 09:30:21;;;;;;;1.25;0.55;;;11.90;99.90;;;;;;4995059;28;20053;-80
2023/11/05 09:32:48;;;;;;;3.47;0.90;;;12.00;99.90;;;;;;4986239;28;20475;-80
2023/11/05 09:35:17;;;;;;;2.80;0.70;;;12.10;99.90;;;;;;4982130;28;20046;-79
2023/11/05 09:37:45;;;;;;;1.67;0.65;;;12.10;99.90;;;;;;4981804;28;20047;-79
2023/11/05 09:40:14;;;;;;;2.55;0.52;;;12.20;99.90;;;;;;4979330;28;20038;-79
2023/11/05 09:42:58;;;;;;;3.25;0.80;;;12.30;99.90;;;;;;4979240;28;20517;-80
2023/11/05 09:45:27;;;;;;;1.30;0.52;;;12.40;99.90;;;;;;4980072;28;20069;-80
2023/11/05 09:47:57;;;;;;;1.27;0.75;;;12.50;99.90;;;;;;4982244;28;20047;-80
2023/11/05 09:50:24;;;;;;;1.00;0.60;;;12.50;99.90;;;;;;4979009;28;20122;-80
2023/11/05 09:52:52;;;;;;;1.85;0.70;;;12.60;99.90;;;;;;4978902;28;20046;-81
2023/11/05 09:55:19;;;;;;;1.63;0.60;;;12.60;99.90;;;;;;4975192;28;20043;-79
2023/11/05 09:57:46;;;;;;;2.08;0.60;;;12.60;99.90;;;;;;4985748;28;20094;-80
2023/11/05 10:00:15;;;;;;;3.92;0.60;;;12.70;99.90;;;;;;4984737;28;20082;-79
2023/11/05 10:02:52;;;;;;;4.03;1.05;;;12.70;99.90;;;;;;4994318;28;20611;-81
2023/11/05 10:05:19;;;;;;;3.55;0.75;;;12.80;99.90;;;;;;4976184;28;20078;-79
2023/11/05 10:07:48;;;;;;;2.38;0.82;;;12.80;99.90;;;;;;4978816;28;20054;-80
2023/11/05 10:10:15;;;;;;;2.38;0.68;;;12.90;99.90;;;;;;4976799;28;20043;-79
2023/11/05 10:12:42;;;;;;;0.55;0.30;;;12.90;99.90;;;;;;4987694;28;20553;-81
2023/11/05 10:15:09;;;;;;;1.40;0.55;;;12.90;99.90;;;;;;4982630;28;20490;-80
2023/11/05 10:17:36;;;;;;;0.90;0.52;;;12.90;99.90;;;;;;4980023;28;20086;-78
2023/11/05 10:20:03;;;;;;;1.42;0.60;;;13.00;99.90;;;;;;4981883;28;20521;-79
2023/11/05 10:22:30;;;;;;;1.55;0.57;;;13.00;99.90;;;;;;4981822;28;20086;-80
2023/11/05 10:24:57;;;;;;;3.55;1.70;;;13.00;99.90;;;;;;4979360;28;20089;-79
2023/11/05 10:27:29;;;;;;;8.15;3.20;;;13.00;99.90;;;;;;4982528;28;20686;-80
2023/11/05 10:29:56;;;;;;;6.60;2.45;;;13.10;99.90;;;;;;4985722;28;20050;-80
2023/11/05 10:32:23;;;;;;;1.98;1.15;;;13.10;99.90;;;;;;4979530;28;20113;-79
2023/11/05 10:34:51;;;;;;;2.42;1.30;;;13.10;99.90;;;;;;4983993;28;20078;-79
2023/11/05 10:37:18;;;;;;;2.35;0.98;;;13.10;99.90;;;;;;4977798;28;20402;-80
2023/11/05 10:39:48;;;;;;;1.30;0.60;;;13.10;99.90;;;;;;4982433;28;20063;-79
2023/11/05 10:42:15;;;;;;;1.13;0.50;;;13.20;99.90;;;;;;4986129;28;20050;-80
2023/11/05 10:44:44;;;;;;;2.35;0.93;;;13.10;99.90;;;;;;4982295;28;20102;-79
2023/11/05 10:47:11;;;;;;;1.92;0.60;;;13.10;99.90;;;;;;4997871;28;20046;-78
2023/11/05 10:49:40;;;;;;;1.73;1.10;;;13.20;99.90;;;;;;4990144;28;20048;-78
2023/11/05 10:52:08;;;;;;;1.48;0.80;;;13.20;99.90;;;;;;4975732;28;20047;-79
2023/11/05 10:54:37;;;;;;;2.85;0.65;;;13.20;99.90;;;;;;4979047;28;20483;-80
2023/11/05 10:57:43;;;;;;;1.40;0.65;;;13.20;99.90;;;;;;4987676;28;20129;-80
2023/11/05 11:00:16;;;;;;;1.38;0.60;;;13.30;99.90;;;;;;4962914;28;20130;-79
2023/11/05 11:02:43;;;;;;;1.38;0.55;;;13.30;99.90;;;;;;4982182;28;20078;-79
2023/11/05 11:05:43;;;;;;;1.10;0.43;;;13.40;99.90;;;;;;4971945;28;20106;-79
2023/11/05 11:08:23;;;;;;;0.45;0.40;;;13.50;99.90;;;;;;4970674;28;20055;-79
2023/11/05 11:11:08;;;;;;;2.55;0.60;;;13.50;99.90;;;;;;4990538;28;20490;-80
2023/11/05 11:13:38;;;;;;;1.40;0.55;;;13.40;99.90;;;;;;4982159;28;20054;-80
2023/11/05 11:16:05;;;;;;;1.10;0.50;;;13.40;99.90;;;;;;4983514;28;20050;-80
2023/11/05 11:18:33;;;;;;;3.78;0.60;;;13.40;99.90;;;;;;4985987;28;20059;-80
2023/11/05 11:21:01;;;;;;;2.35;0.50;;;13.40;99.90;;;;;;4988261;28;20097;-79
2023/11/05 11:23:28;;;;;;;2.15;0.73;;;13.40;99.90;;;;;;4990734;28;20057;-80
2023/11/05 11:25:58;;;;;;;1.48;0.47;;;13.40;99.90;;;;;;4989667;28;20042;-79
2023/11/05 11:28:32;;;;;;;2.08;0.63;;;13.50;99.90;;;;;;4992158;28;20395;-80
2023/11/05 11:31:00;;;;;;;0.85;0.43;;;13.50;99.90;;;;;;4986103;28;20045;-80
2023/11/05 11:33:27;;;;;;;2.08;0.60;;;13.50;99.90;;;;;;4984727;28;20043;-79
2023/11/05 11:35:55;;;;;;;2.92;0.60;;;13.60;99.90;;;;;;4980770;28;20051;-79
2023/11/05 11:38:22;;;;;;;2.30;0.70;;;13.60;99.90;;;;;;4987110;28;20101;-80
2023/11/05 11:40:57;;;;;;;1.20;0.60;;;13.60;99.90;;;;;;4987847;28;20062;-80
2023/11/05 11:43:26;;;;;;;0.65;0.30;;;13.60;99.90;;;;;;4979117;28;20051;-79
2023/11/05 11:45:53;;;;;;;4.47;1.17;;;13.60;99.90;;;;;;4991430;28;20057;-80
2023/11/05 11:48:25;;;;;;;1.85;0.82;;;13.60;99.90;;;;;;4981794;28;20130;-79
2023/11/05 11:51:06;;;;;;;1.77;0.40;;;13.60;99.90;;;;;;4985875;28;20047;-80
2023/11/05 11:53:39;;;;;;;1.55;0.57;;;13.60;99.90;;;;;;4987835;28;20085;-80
2023/11/05 11:56:07;;;;;;;3.97;0.70;;;13.60;99.90;;;;;;4983828;28;20067;-80
2023/11/05 11:58:39;;;;;;;1.95;0.60;;;13.60;99.90;;;;;;4982319;28;20586;-80
2023/11/05 12:01:18;;;;;;;1.80;0.50;;;13.60;99.90;;;;;;4985149;28;20050;-79
2023/11/05 12:03:45;;;;;;;4.65;0.80;;;13.60;99.90;;;;;;4987292;28;20055;-81
2023/11/05 12:06:13;;;;;;;0.80;0.50;;;13.50;99.90;;;;;;4985004;28;20061;-80
2023/11/05 12:08:45;;;;;;;1.85;0.70;;;13.50;99.90;;;;;;4990204;28;20047;-80
2023/11/05 12:11:19;;;;;;;1.42;0.60;;;13.50;99.90;;;;;;4973994;28;20042;-79
2023/11/05 12:13:46;;;;;;;6.10;0.95;;;13.50;99.90;;;;;;4983557;28;20047;-79
2023/11/05 12:16:19;;;;;;;1.08;0.70;;;13.60;99.90;;;;;;4982781;28;20061;-80
2023/11/05 12:18:48;;;;;;;1.05;0.50;;;13.60;99.90;;;;;;4983062;28;20061;-79
2023/11/05 12:21:15;;;;;;;3.33;0.55;;;13.50;99.90;;;;;;4989524;28;20136;-80
2023/11/05 12:23:43;;;;;;;0.60;0.50;;;13.50;99.90;;;;;;4984700;28;20443;-80
2023/11/05 12:26:11;;;;;;;0.82;0.47;;;13.50;99.90;;;;;;4992919;28;20552;-81
2023/11/05 12:28:39;;;;;;;2.38;1.15;;;13.30;99.90;;;;;;4980468;28;20051;-81
2023/11/05 12:31:07;;;;;;;2.97;1.65;;;13.20;99.90;;;;;;4991067;28;20046;-79
2023/11/05 12:33:38;;;;;;;5.82;0.93;;;13.00;99.90;;;;;;4983899;28;20042;-80
2023/11/05 12:36:07;;;;;;;2.55;0.65;;;13.00;99.90;;;;;;4988675;28;20046;-80
2023/11/05 12:38:34;;;;;;;2.83;0.80;;;13.00;99.90;;;;;;4991099;28;20047;-79
2023/11/05 12:41:01;;;;;;;3.92;0.82;;;12.80;99.90;;;;;;4984372;28;20090;-79
2023/11/05 12:43:28;;;;;;;1.95;0.60;;;12.80;99.90;;;;;;4981086;28;20478;-80
2023/11/05 12:45:55;;;;;;;2.10;0.80;;;12.70;99.90;;;;;;4972664;28;20582;-80
2023/11/05 12:48:26;;;;;;;1.85;0.63;;;12.70;99.90;;;;;;4982520;28;20046;-79
2023/11/05 12:50:59;;;;;;;2.20;0.70;;;12.60;99.90;;;;;;4994631;28;20573;-80